createdAt,value
2018-06-04T00:02:27.242Z,92.78
2018-06-04T00:04:55.741Z,93.01
2018-06-04T00:07:24.479Z,93.27
2018-06-04T00:09:53.054Z,93.38
2018-06-04T00:12:21.521Z,93.41
2018-06-04T00:14:49.982Z,92.86
2018-06-04T00:17:18.510Z,93.10
2018-06-04T00:19:47.009Z,92.95
2018-06-04T00:22:15.490Z,93.18
2018-06-04T00:24:44.015Z,92.99
2018-06-04T00:27:12.508Z,93.07
2018-06-04T00:29:40.985Z,93.27
2018-06-04T00:32:09.527Z,93.00
2018-06-04T00:34:38.093Z,92.87
2018-06-04T00:37:06.583Z,93.34
2018-06-04T00:39:35.103Z,93.39
2018-06-04T00:42:03.619Z,93.07
2018-06-04T00:44:32.109Z,93.72
2018-06-04T00:47:00.582Z,93.73
2018-06-04T00:49:29.165Z,93.32
2018-06-04T00:51:57.643Z,93.63
2018-06-04T00:54:26.097Z,93.88
2018-06-04T00:56:54.610Z,94.08
2018-06-04T00:59:23.087Z,94.21
2018-06-04T01:01:51.689Z,94.23
2018-06-04T01:04:20.145Z,94.10
2018-06-04T01:06:48.719Z,94.04
2018-06-04T01:09:17.301Z,94.61
2018-06-04T01:11:45.761Z,94.48
2018-06-04T01:14:14.217Z,94.35
2018-06-04T01:16:42.705Z,94.74
2018-06-04T01:19:11.174Z,95.02
2018-06-04T01:21:39.666Z,94.97
2018-06-04T01:24:08.143Z,94.98
2018-06-04T01:26:36.601Z,94.82
2018-06-04T01:29:05.602Z,95.08
2018-06-04T01:31:34.063Z,94.96
2018-06-04T01:34:02.525Z,95.08
2018-06-04T01:36:31.106Z,94.75
2018-06-04T01:38:59.583Z,94.95
2018-06-04T01:41:28.045Z,94.69
2018-06-04T01:43:56.598Z,95.10
2018-06-04T01:46:25.056Z,94.83
2018-06-04T01:48:53.657Z,95.18
2018-06-04T01:51:22.118Z,94.57
2018-06-04T01:53:50.597Z,95.08
2018-06-04T01:56:19.090Z,94.91
2018-06-04T01:58:47.551Z,94.74
2018-06-04T02:01:16.473Z,94.34
2018-06-04T02:03:44.924Z,94.74
2018-06-04T02:06:13.411Z,94.66
2018-06-04T02:08:42.514Z,94.19
2018-06-04T02:11:10.977Z,94.46
2018-06-04T02:13:39.475Z,94.16
2018-06-04T02:16:07.980Z,94.08
2018-06-04T02:18:36.482Z,94.30
2018-06-04T02:21:04.956Z,94.38
2018-06-04T02:23:33.856Z,93.85
2018-06-04T02:26:02.343Z,93.41
2018-06-04T02:28:30.815Z,93.41
2018-06-04T02:30:59.323Z,93.29
2018-06-04T02:33:27.867Z,93.10
2018-06-04T02:35:56.377Z,92.81
2018-06-04T02:38:24.861Z,93.38
2018-06-04T02:40:53.674Z,92.76
2018-06-04T02:43:22.139Z,93.26
2018-06-04T02:45:50.688Z,92.88
2018-06-04T02:48:19.173Z,92.40
2018-06-04T02:50:47.654Z,92.40
2018-06-04T02:53:16.171Z,92.52
2018-06-04T02:55:44.643Z,92.54
2018-06-04T02:58:13.162Z,92.69
2018-06-04T03:00:41.639Z,92.36
2018-06-04T03:03:10.148Z,92.33
2018-06-04T03:05:38.619Z,92.74
2018-06-04T03:08:07.254Z,92.74
2018-06-04T03:10:35.771Z,92.59
2018-06-04T03:13:04.275Z,92.68
2018-06-04T03:15:33.187Z,92.53
2018-06-04T03:18:01.679Z,92.59
2018-06-04T03:20:30.187Z,92.33
2018-06-04T03:22:58.704Z,92.34
2018-06-04T03:25:27.246Z,92.47
2018-06-04T03:27:55.788Z,92.54
2018-06-04T03:30:24.283Z,92.71
2018-06-04T03:32:52.899Z,92.61
2018-06-04T03:35:21.398Z,93.01
2018-06-04T03:37:49.957Z,92.88
2018-06-04T03:40:18.494Z,92.96
2018-06-04T03:42:47.019Z,92.64
2018-06-04T03:45:15.915Z,92.95
2018-06-04T03:47:44.386Z,92.21
2018-06-04T03:50:12.869Z,92.21
2018-06-04T03:52:41.699Z,92.27
2018-06-04T03:55:10.175Z,92.40
2018-06-04T03:57:38.646Z,92.12
2018-06-04T04:00:07.218Z,92.12
2018-06-04T04:02:35.764Z,92.40
2018-06-04T04:05:04.251Z,92.52
2018-06-04T04:07:32.748Z,92.56
2018-06-04T04:10:01.262Z,92.71
2018-06-04T04:12:30.153Z,92.60
2018-06-04T04:14:58.640Z,92.53
2018-06-04T04:17:27.171Z,92.58
2018-06-04T04:19:56.092Z,92.34
2018-06-04T04:22:24.590Z,92.37
2018-06-04T04:24:53.074Z,92.67
2018-06-04T04:27:21.593Z,92.37
2018-06-04T04:29:50.238Z,91.38
2018-06-04T04:32:19.130Z,91.32
2018-06-04T04:34:47.595Z,91.48
2018-06-04T04:37:16.741Z,91.20
2018-06-04T04:39:45.271Z,91.45
2018-06-04T04:42:13.768Z,91.59
2018-06-04T04:44:42.710Z,91.65
2018-06-04T04:47:11.800Z,91.88
2018-06-04T04:49:40.291Z,92.23
2018-06-04T04:52:09.028Z,92.59
2018-06-04T04:54:37.525Z,92.38
2018-06-04T04:57:06.051Z,92.68
2018-06-04T04:59:34.604Z,92.29
2018-06-04T05:02:03.098Z,91.86
2018-06-04T05:04:32.607Z,92.57
2018-06-04T05:07:01.127Z,92.15
2018-06-04T05:09:29.658Z,92.40
2018-06-04T05:11:58.195Z,92.54
2018-06-04T05:14:26.762Z,92.28
2018-06-04T05:16:55.296Z,91.89
2018-06-04T05:19:23.894Z,92.83
2018-06-04T05:21:52.453Z,91.88
2018-06-04T05:24:20.963Z,91.82
2018-06-04T05:26:49.494Z,92.65
2018-06-04T05:29:18.014Z,92.18
2018-06-04T05:31:46.630Z,91.82
2018-06-04T05:34:15.477Z,92.62
2018-06-04T05:36:43.971Z,92.53
2018-06-04T05:39:12.516Z,92.11
2018-06-04T05:41:41.167Z,92.60
2018-06-04T05:44:09.680Z,92.29
2018-06-04T05:46:38.199Z,91.69
2018-06-04T05:49:06.968Z,91.83
2018-06-04T05:51:35.505Z,91.84
2018-06-04T05:54:03.989Z,92.38
2018-06-04T05:56:32.523Z,92.32
2018-06-04T05:59:01.052Z,92.15
2018-06-04T06:01:29.552Z,91.35
2018-06-04T06:03:58.107Z,91.23
2018-06-04T06:06:26.618Z,90.42
2018-06-04T06:08:55.592Z,89.11
2018-06-04T06:11:24.102Z,87.92
2018-06-04T06:13:52.593Z,88.38
2018-06-04T06:16:21.238Z,87.87
2018-06-04T06:18:49.741Z,88.15
2018-06-04T06:21:18.255Z,86.88
2018-06-04T06:23:46.779Z,86.27
2018-06-04T06:26:15.302Z,87.39
2018-06-04T06:28:43.853Z,84.93
2018-06-04T06:31:12.811Z,83.48
2018-06-04T06:33:41.438Z,84.57
2018-06-04T06:36:09.917Z,84.26
2018-06-04T06:38:38.514Z,87.61
2018-06-04T06:41:07.031Z,83.03
2018-06-04T06:43:35.542Z,83.58
2018-06-04T06:46:04.060Z,83.50
2018-06-04T06:48:32.595Z,85.14
2018-06-04T06:51:01.096Z,85.28
2018-06-04T06:53:29.607Z,85.38
2018-06-04T06:55:58.103Z,86.04
2018-06-04T06:58:26.648Z,86.85
2018-06-04T07:00:55.197Z,86.82
2018-06-04T07:03:23.814Z,86.46
2018-06-04T07:05:52.338Z,85.82
2018-06-04T07:08:20.874Z,85.97
2018-06-04T07:10:49.395Z,84.79
2018-06-04T07:13:17.886Z,85.07
2018-06-04T07:15:46.404Z,86.30
2018-06-04T07:18:14.958Z,85.15
2018-06-04T07:20:43.473Z,84.87
2018-06-04T07:23:11.966Z,83.28
2018-06-04T07:25:40.516Z,83.82
2018-06-04T07:28:09.140Z,83.21
2018-06-04T07:30:37.610Z,82.29
2018-06-04T07:33:06.123Z,82.30
2018-06-04T07:35:34.669Z,82.56
2018-06-04T07:38:03.152Z,82.37
2018-06-04T07:40:31.779Z,82.82
2018-06-04T07:43:00.663Z,81.33
2018-06-04T07:45:29.154Z,81.49
2018-06-04T07:47:57.642Z,80.57
2018-06-04T07:50:26.311Z,80.94
2018-06-04T07:52:54.832Z,81.28
2018-06-04T07:55:23.479Z,79.96
2018-06-04T07:57:51.963Z,79.77
2018-06-04T08:00:20.485Z,80.21
2018-06-04T08:02:49.455Z,78.69
2018-06-04T08:05:17.982Z,78.61
2018-06-04T08:07:46.487Z,80.26
2018-06-04T08:10:15.035Z,79.40
2018-06-04T08:12:43.608Z,80.73
2018-06-04T08:15:12.467Z,81.50
2018-06-04T08:17:40.952Z,79.04
2018-06-04T08:20:09.434Z,79.53
2018-06-04T08:22:37.951Z,80.05
2018-06-04T08:25:06.462Z,79.35
2018-06-04T08:27:34.985Z,80.39
2018-06-04T08:30:03.515Z,79.39
2018-06-04T08:32:32.182Z,78.40
2018-06-04T08:35:00.899Z,80.83
2018-06-04T08:37:29.515Z,79.53
2018-06-04T08:39:58.024Z,79.86
2018-06-04T08:42:26.506Z,79.66
2018-06-04T08:44:55.059Z,81.45
2018-06-04T08:47:23.579Z,80.70
2018-06-04T08:49:52.095Z,81.71
2018-06-04T08:52:20.725Z,80.66
2018-06-04T08:54:49.221Z,79.15
2018-06-04T08:57:17.736Z,80.58
2018-06-04T08:59:46.240Z,81.09
2018-06-04T09:02:14.771Z,81.22
2018-06-04T09:04:43.318Z,83.62
2018-06-04T09:07:11.846Z,82.01
2018-06-04T09:09:40.334Z,82.62
2018-06-04T09:12:08.818Z,81.57
2018-06-04T09:14:37.352Z,81.92
2018-06-04T09:17:06.697Z,80.53
2018-06-04T09:19:35.550Z,79.35
2018-06-04T09:22:04.055Z,78.38
2018-06-04T09:24:32.559Z,78.21
2018-06-04T09:27:01.179Z,77.99
2018-06-04T09:29:29.688Z,78.87
2018-06-04T09:31:58.220Z,76.03
2018-06-04T09:34:26.715Z,75.90
2018-06-04T09:36:55.252Z,75.00
2018-06-04T09:39:23.755Z,75.00
2018-06-04T09:41:52.408Z,72.80
2018-06-04T09:44:20.918Z,72.69
2018-06-04T09:46:49.464Z,74.64
2018-06-04T09:49:18.155Z,72.04
2018-06-04T09:51:46.654Z,70.74
2018-06-04T09:54:15.158Z,75.21
2018-06-04T09:56:43.702Z,69.43
2018-06-04T09:59:12.197Z,69.81
2018-06-04T10:01:40.699Z,67.70
2018-06-04T10:04:09.219Z,72.30
2018-06-04T10:06:37.722Z,68.36
2018-06-04T10:09:08.242Z,72.79
2018-06-04T10:11:36.791Z,74.45
2018-06-04T10:14:05.723Z,67.86
2018-06-04T10:16:34.323Z,68.51
2018-06-04T10:19:02.847Z,68.99
2018-06-04T10:21:31.691Z,65.03
2018-06-04T10:24:00.558Z,66.60
2018-06-04T10:26:29.082Z,67.17
2018-06-04T10:28:57.627Z,66.64
2018-06-04T10:31:26.159Z,64.63
2018-06-04T10:33:54.801Z,66.41
2018-06-04T10:36:23.334Z,71.55
2018-06-04T10:38:51.842Z,71.80
2018-06-04T10:41:20.453Z,65.22
2018-06-04T10:43:48.947Z,67.64
2018-06-04T10:46:17.438Z,69.61
2018-06-04T10:48:46.069Z,69.43
2018-06-04T10:51:14.575Z,65.15
2018-06-04T10:53:43.074Z,65.94
2018-06-04T10:56:11.919Z,66.00
2018-06-04T10:58:40.445Z,66.06
2018-06-04T11:01:08.948Z,70.29
2018-06-04T11:03:37.516Z,68.13
2018-06-04T11:06:06.012Z,67.68
2018-06-04T11:08:34.534Z,66.89
2018-06-04T11:11:03.063Z,64.78
2018-06-04T11:13:31.605Z,66.02
2018-06-04T11:16:00.097Z,65.96
2018-06-04T11:18:28.768Z,67.74
2018-06-04T11:20:57.288Z,68.21
2018-06-04T11:23:25.787Z,66.70
2018-06-04T11:25:54.301Z,67.50
2018-06-04T11:28:22.815Z,70.29
2018-06-04T11:30:51.366Z,66.78
2018-06-04T11:33:19.878Z,67.30
2018-06-04T11:35:48.375Z,68.27
2018-06-04T11:38:17.391Z,66.96
2018-06-04T11:40:45.898Z,67.48
2018-06-04T11:43:14.377Z,65.74
2018-06-04T11:45:43.036Z,69.35
2018-06-04T11:48:11.538Z,66.99
2018-06-04T11:50:40.067Z,66.09
2018-06-04T11:53:08.683Z,66.65
2018-06-04T11:55:37.211Z,63.70
2018-06-04T11:58:05.738Z,64.68
2018-06-04T12:00:34.279Z,66.92
2018-06-04T12:03:02.782Z,68.28
2018-06-04T12:05:31.428Z,68.32
2018-06-04T12:08:00.014Z,68.06
2018-06-04T12:10:28.519Z,67.68
2018-06-04T12:12:57.155Z,64.00
2018-06-04T12:15:25.662Z,60.52
2018-06-04T12:17:54.154Z,60.01
2018-06-04T12:20:22.660Z,64.57
2018-06-04T12:22:51.183Z,67.56
2018-06-04T12:25:19.723Z,65.75
2018-06-04T12:27:48.646Z,66.84
2018-06-04T12:30:17.134Z,62.29
2018-06-04T12:32:46.486Z,63.19
2018-06-04T12:35:15.035Z,64.01
2018-06-04T12:37:43.514Z,64.67
2018-06-04T12:40:12.191Z,64.69
2018-06-04T12:42:40.719Z,65.35
2018-06-04T12:45:09.198Z,66.54
2018-06-04T12:47:37.735Z,64.39
2018-06-04T12:50:06.226Z,64.30
2018-06-04T12:52:34.810Z,64.67
2018-06-04T12:55:03.335Z,65.40
2018-06-04T12:57:31.918Z,66.23
2018-06-04T13:00:00.468Z,64.24
2018-06-04T13:02:28.966Z,64.50
2018-06-04T13:04:57.584Z,62.95
2018-06-04T13:07:26.363Z,64.12
2018-06-04T13:09:54.861Z,64.05
2018-06-04T13:12:23.338Z,64.37
2018-06-04T13:14:51.841Z,65.14
2018-06-04T13:17:20.383Z,64.75
2018-06-04T13:19:48.883Z,63.60
2018-06-04T13:22:17.471Z,62.93
2018-06-04T13:24:45.978Z,64.06
2018-06-04T13:27:14.487Z,64.82
2018-06-04T13:29:43.033Z,64.83
2018-06-04T13:32:11.550Z,63.22
2018-06-04T13:34:40.062Z,63.24
2018-06-04T13:37:08.660Z,61.93
2018-06-04T13:39:37.338Z,62.28
2018-06-04T13:42:05.876Z,64.00
2018-06-04T13:44:34.433Z,63.10
2018-06-04T13:47:03.018Z,65.60
2018-06-04T13:49:31.516Z,62.82
2018-06-04T13:52:00.430Z,60.69
2018-06-04T13:54:28.941Z,61.67
2018-06-04T13:56:57.451Z,63.88
2018-06-04T13:59:25.981Z,61.95
2018-06-04T14:01:54.483Z,61.32
2018-06-04T14:04:23.122Z,59.67
2018-06-04T14:06:51.659Z,62.56
2018-06-04T14:09:20.146Z,62.10
2018-06-04T14:11:49.369Z,60.40
2018-06-04T14:14:17.879Z,62.81
2018-06-04T14:16:46.393Z,59.46
2018-06-04T14:19:14.894Z,60.05
2018-06-04T14:21:43.852Z,64.20
2018-06-04T14:24:12.347Z,62.38
2018-06-04T14:26:41.167Z,59.97
2018-06-04T14:29:09.746Z,60.05
2018-06-04T14:31:38.277Z,64.26
2018-06-04T14:34:06.803Z,61.79
2018-06-04T14:36:35.469Z,59.70
2018-06-04T14:39:06.547Z,62.65
2018-06-04T14:41:35.458Z,61.42
2018-06-04T14:44:03.992Z,62.96
2018-06-04T14:46:32.526Z,57.37
2018-06-04T14:49:01.091Z,61.88
2018-06-04T14:51:36.135Z,63.42
2018-06-04T14:54:05.985Z,62.44
2018-06-04T14:56:34.569Z,61.88
2018-06-04T14:59:03.078Z,62.44
2018-06-04T15:01:31.646Z,62.94
2018-06-04T15:04:00.199Z,63.78
2018-06-04T15:06:28.690Z,62.52
2018-06-04T15:08:57.232Z,61.58
2018-06-04T15:11:25.751Z,63.17
2018-06-04T15:13:54.245Z,63.23
2018-06-04T15:16:22.818Z,64.10
2018-06-04T15:18:51.341Z,64.26
2018-06-04T15:21:19.837Z,64.72
2018-06-04T15:23:48.728Z,64.43
2018-06-04T15:26:17.203Z,64.64
2018-06-04T15:28:45.703Z,64.85
2018-06-04T15:31:14.254Z,66.29
2018-06-04T15:33:42.734Z,65.53
2018-06-04T15:36:11.379Z,65.38
2018-06-04T15:38:39.890Z,65.75
2018-06-04T15:41:08.374Z,65.30
2018-06-04T15:43:37.014Z,65.50
2018-06-04T15:46:05.671Z,66.08
2018-06-04T15:48:34.186Z,66.29
2018-06-04T15:51:02.757Z,66.62
2018-06-04T15:53:31.300Z,67.62
2018-06-04T15:56:00.737Z,67.95
2018-06-04T15:58:29.227Z,68.26
2018-06-04T16:00:57.759Z,69.67
2018-06-04T16:03:26.285Z,68.96
2018-06-04T16:05:54.802Z,69.93
2018-06-04T16:08:23.318Z,69.84
2018-06-04T16:10:52.392Z,70.41
2018-06-04T16:13:20.914Z,70.01
2018-06-04T16:15:49.415Z,71.06
2018-06-04T16:18:17.958Z,70.63
2018-06-04T16:20:46.446Z,70.38
2018-06-04T16:23:14.946Z,71.02
2018-06-04T16:25:43.859Z,70.96
2018-06-04T16:28:12.340Z,70.72
2018-06-04T16:30:40.819Z,70.73
2018-06-04T16:33:09.430Z,70.83
2018-06-04T16:35:38.018Z,70.27
2018-06-04T16:38:06.521Z,71.01
2018-06-04T16:40:35.035Z,71.37
2018-06-04T16:43:03.694Z,71.71
2018-06-04T16:45:32.191Z,72.16
2018-06-04T16:48:00.767Z,73.13
2018-06-04T16:50:29.310Z,74.41
2018-06-04T16:52:57.782Z,73.27
2018-06-04T16:55:26.290Z,74.28
2018-06-04T16:57:54.881Z,74.16
2018-06-04T17:00:23.374Z,73.95
2018-06-04T17:02:52.455Z,73.50
2018-06-04T17:05:21.047Z,74.20
2018-06-04T17:07:49.536Z,74.14
2018-06-04T17:10:18.095Z,74.39
2018-06-04T17:12:46.666Z,74.93
2018-06-04T17:15:15.219Z,73.97
2018-06-04T17:17:43.816Z,74.56
2018-06-04T17:20:12.531Z,75.02
2018-06-04T17:22:42.076Z,74.84
2018-06-04T17:25:10.575Z,74.44
2018-06-04T17:27:39.553Z,75.21
2018-06-04T17:30:08.058Z,75.04
2018-06-04T17:32:36.687Z,75.17
2018-06-04T17:35:05.879Z,74.75
2018-06-04T17:37:34.399Z,74.67
2018-06-04T17:40:02.913Z,74.70
2018-06-04T17:42:31.504Z,75.52
2018-06-04T17:45:00.150Z,75.10
2018-06-04T17:47:28.686Z,75.37
2018-06-04T17:49:57.339Z,75.29
2018-06-04T17:52:25.838Z,75.09
2018-06-04T17:54:54.350Z,75.82
2018-06-04T17:57:23.013Z,76.38
2018-06-04T17:59:51.515Z,75.70
2018-06-04T18:02:20.058Z,76.07
2018-06-04T18:04:48.612Z,76.51
2018-06-04T18:07:17.115Z,76.82
2018-06-04T18:09:45.810Z,76.93
2018-06-04T18:12:14.326Z,77.46
2018-06-04T18:14:42.978Z,77.23
2018-06-04T18:17:11.523Z,76.53
2018-06-04T18:19:40.513Z,77.26
2018-06-04T18:22:09.067Z,76.69
2018-06-04T18:24:37.681Z,77.91
2018-06-04T18:27:06.207Z,77.06
2018-06-04T18:29:34.717Z,77.01
2018-06-04T18:32:03.330Z,77.87
2018-06-04T18:34:31.842Z,77.36
2018-06-04T18:37:00.346Z,77.04
2018-06-04T18:39:28.930Z,77.88
2018-06-04T18:41:57.520Z,77.40
2018-06-04T18:44:26.059Z,78.43
2018-06-04T18:46:54.599Z,77.97
2018-06-04T18:49:23.128Z,78.35
2018-06-04T18:51:51.650Z,78.78
2018-06-04T18:54:20.280Z,79.47
2018-06-04T18:56:48.922Z,78.92
2018-06-04T18:59:17.502Z,79.10
2018-06-04T19:01:46.011Z,79.13
2018-06-04T19:04:14.556Z,79.27
2018-06-04T19:06:44.388Z,79.64
2018-06-04T19:09:12.910Z,79.39
2018-06-04T19:11:41.528Z,79.46
2018-06-04T19:14:10.094Z,79.36
2018-06-04T19:16:38.606Z,79.88
2018-06-04T19:19:07.214Z,79.97
2018-06-04T19:21:35.734Z,79.85
2018-06-04T19:24:04.276Z,80.21
2018-06-04T19:26:34.052Z,79.86
2018-06-04T19:29:02.604Z,81.17
2018-06-04T19:31:31.140Z,80.61
2018-06-04T19:33:59.649Z,80.70
2018-06-04T19:36:28.158Z,80.65
2018-06-04T19:38:56.778Z,81.39
2018-06-04T19:41:25.275Z,81.09
2018-06-04T19:43:53.807Z,81.15
2018-06-04T19:46:22.322Z,81.39
2018-06-04T19:48:50.852Z,81.58
2018-06-04T19:51:19.469Z,82.09
2018-06-04T19:53:47.983Z,82.47
2018-06-04T19:56:16.655Z,83.17
2018-06-04T19:58:45.579Z,83.10
2018-06-04T20:01:14.078Z,83.82
2018-06-04T20:03:42.584Z,82.95
2018-06-04T20:06:11.160Z,83.11
2018-06-04T20:08:40.217Z,83.51
2018-06-04T20:11:08.678Z,83.62
2018-06-04T20:13:37.163Z,84.40
2018-06-04T20:16:05.678Z,84.34
2018-06-04T20:18:35.059Z,84.87
2018-06-04T20:21:03.637Z,84.74
2018-06-04T20:23:32.147Z,85.04
2018-06-04T20:26:00.650Z,84.87
2018-06-04T20:28:29.268Z,85.23
2018-06-04T20:30:57.745Z,84.47
2018-06-04T20:33:26.234Z,84.39
2018-06-04T20:35:54.737Z,84.47
2018-06-04T20:38:23.466Z,84.41
2018-06-04T20:40:52.483Z,84.64
2018-06-04T20:43:20.962Z,84.46
2018-06-04T20:45:49.447Z,84.30
2018-06-04T20:48:18.063Z,84.05
2018-06-04T20:50:46.550Z,84.34
2018-06-04T20:53:15.674Z,83.61
2018-06-04T20:55:44.930Z,83.56
2018-06-04T20:58:13.421Z,83.59
2018-06-04T21:00:41.927Z,83.50
2018-06-04T21:03:10.493Z,82.87
2018-06-04T21:05:39.113Z,82.71
2018-06-04T21:08:07.730Z,82.38
2018-06-04T21:10:36.235Z,82.56
2018-06-04T21:13:04.793Z,82.16
2018-06-04T21:15:33.290Z,82.65
2018-06-04T21:18:01.793Z,82.03
2018-06-04T21:20:30.326Z,81.67
2018-06-04T21:22:58.809Z,81.75
2018-06-04T21:25:27.358Z,81.14
2018-06-04T21:27:55.845Z,80.87
2018-06-04T21:30:24.363Z,81.83
2018-06-04T21:32:52.869Z,81.28
2018-06-04T21:35:21.375Z,80.78
2018-06-04T21:37:49.908Z,80.95
2018-06-04T21:40:18.568Z,80.42
2018-06-04T21:42:47.257Z,81.14
2018-06-04T21:45:15.771Z,81.22
2018-06-04T21:47:44.393Z,80.89
2018-06-04T21:50:12.895Z,81.04
2018-06-04T21:52:41.374Z,81.10
2018-06-04T21:55:09.879Z,80.66
2018-06-04T21:57:38.487Z,80.42
2018-06-04T22:00:09.314Z,80.38
2018-06-04T22:02:38.448Z,81.08
2018-06-04T22:05:07.123Z,81.14
2018-06-04T22:07:35.621Z,81.20
2018-06-04T22:10:04.311Z,81.08
2018-06-04T22:12:32.812Z,80.76
2018-06-04T22:15:01.341Z,80.97
2018-06-04T22:17:29.882Z,80.70
2018-06-04T22:19:58.830Z,80.54
2018-06-04T22:22:27.394Z,80.99
2018-06-04T22:24:55.887Z,81.01
2018-06-04T22:27:24.489Z,81.03
2018-06-04T22:29:52.982Z,81.53
2018-06-04T22:32:21.614Z,81.36
2018-06-04T22:34:50.101Z,81.93
2018-06-04T22:37:18.627Z,81.29
2018-06-04T22:39:47.527Z,81.29
2018-06-04T22:42:16.026Z,81.05
2018-06-04T22:44:44.536Z,80.55
2018-06-04T22:47:13.055Z,81.20
2018-06-04T22:49:41.930Z,81.03
2018-06-04T22:52:10.413Z,81.20
2018-06-04T22:54:38.907Z,80.89
2018-06-04T22:57:07.479Z,80.83
2018-06-04T22:59:35.946Z,81.33
2018-06-04T23:02:04.447Z,81.41
2018-06-04T23:04:33.001Z,80.57
2018-06-04T23:07:01.512Z,81.36
2018-06-04T23:09:30.001Z,81.47
2018-06-04T23:11:58.598Z,81.11
2018-06-04T23:14:27.058Z,81.11
2018-06-04T23:16:55.542Z,81.50
2018-06-04T23:19:24.013Z,80.75
2018-06-04T23:21:52.541Z,80.80
2018-06-04T23:24:21.012Z,80.44
2018-06-04T23:26:49.499Z,80.73
2018-06-04T23:29:17.989Z,80.93
2018-06-04T23:31:46.481Z,80.89
2018-06-04T23:34:14.966Z,80.63
2018-06-04T23:36:43.427Z,81.07
2018-06-04T23:39:11.969Z,81.03
2018-06-04T23:41:40.450Z,80.90
2018-06-04T23:44:09.016Z,80.47
2018-06-04T23:46:37.509Z,80.65
2018-06-04T23:49:06.003Z,80.53
2018-06-04T23:51:35.512Z,80.44
2018-06-04T23:54:04.006Z,80.75
2018-06-04T23:56:32.489Z,80.03
2018-06-04T23:59:01.069Z,79.79
